createdAt,value
2022-09-18T00:01:50.576Z,98804.27
2022-09-18T00:06:53.301Z,98801.25
2022-09-18T00:11:56.570Z,98805.73
2022-09-18T00:16:59.592Z,98798.65
2022-09-18T00:22:02.343Z,98796.55
2022-09-18T00:27:05.272Z,98792.66
2022-09-18T00:32:07.988Z,98793.36
2022-09-18T00:37:11.309Z,98798.15
2022-09-18T00:42:14.122Z,98797.02
2022-09-18T00:47:29.785Z,98800.41
2022-09-18T00:52:58.120Z,98800.91
2022-09-18T00:58:03.275Z,98796.23
2022-09-18T01:03:06.225Z,98795.11
2022-09-18T01:08:23.561Z,98789.13
2022-09-18T01:13:55.430Z,98789.15
2022-09-18T01:19:39.392Z,98786.29
2022-09-18T01:24:50.815Z,98789.09
2022-09-18T01:30:02.302Z,98788.05
2022-09-18T01:35:36.835Z,98791.20
2022-09-18T01:40:46.608Z,98792.44
2022-09-18T01:45:55.740Z,98792.48
2022-09-18T01:51:17.205Z,98799.40
2022-09-18T01:56:25.946Z,98794.76
2022-09-18T02:01:31.354Z,98787.63
2022-09-18T02:06:45.165Z,98783.21
2022-09-18T02:11:54.004Z,98784.73
2022-09-18T02:17:06.151Z,98779.94
2022-09-18T02:22:12.444Z,98784.43
2022-09-18T02:27:16.459Z,98780.26
2022-09-18T02:32:19.310Z,98777.73
2022-09-18T02:37:50.137Z,98772.90
2022-09-18T02:43:14.797Z,98767.47
2022-09-18T02:48:25.609Z,98765.19
2022-09-18T02:53:30.806Z,98761.59
2022-09-18T02:58:38.134Z,98758.77
2022-09-18T03:03:41.901Z,98763.19
2022-09-18T03:08:44.646Z,98769.27
2022-09-18T03:13:47.543Z,98765.50
2022-09-18T03:18:50.369Z,98771.80
2022-09-18T03:23:53.370Z,98776.48
2022-09-18T03:28:56.118Z,98776.12
2022-09-18T03:33:58.864Z,98786.89
2022-09-18T03:39:01.744Z,98795.73
2022-09-18T03:44:05.046Z,98795.46
2022-09-18T03:49:07.817Z,98798.02
2022-09-18T03:54:10.489Z,98797.23
2022-09-18T03:59:13.445Z,98798.64
2022-09-18T04:04:16.197Z,98800.05
2022-09-18T04:09:18.940Z,98793.04
2022-09-18T04:14:25.611Z,98793.19
2022-09-18T04:19:32.217Z,98791.79
2022-09-18T04:24:36.378Z,98793.55
2022-09-18T04:29:39.185Z,98788.25
2022-09-18T04:34:43.422Z,98781.38
2022-09-18T04:39:47.277Z,98788.30
2022-09-18T04:44:50.015Z,98787.70
2022-09-18T04:49:53.987Z,98786.05
2022-09-18T04:54:57.093Z,98791.85
2022-09-18T04:59:59.945Z,98788.94
2022-09-18T05:05:02.640Z,98789.02
2022-09-18T05:10:11.227Z,98784.70
2022-09-18T05:15:14.606Z,98790.76
2022-09-18T05:20:17.337Z,98797.60
2022-09-18T05:25:23.392Z,98798.11
2022-09-18T05:30:27.436Z,98800.90
2022-09-18T05:35:32.360Z,98805.25
2022-09-18T05:40:37.431Z,98805.41
2022-09-18T05:45:40.556Z,98802.52
2022-09-18T05:50:43.443Z,98800.03
2022-09-18T05:55:46.644Z,98796.77
2022-09-18T06:00:52.185Z,98789.58
2022-09-18T06:05:55.220Z,98792.54
2022-09-18T06:11:01.030Z,98798.42
2022-09-18T06:16:04.086Z,98801.56
2022-09-18T06:21:07.412Z,98806.33
2022-09-18T06:26:14.722Z,98812.21
2022-09-18T06:31:18.051Z,98811.68
2022-09-18T06:36:20.919Z,98810.05
2022-09-18T06:41:24.187Z,98813.29
2022-09-18T06:46:27.063Z,98814.59
2022-09-18T06:51:30.691Z,98811.52
2022-09-18T06:56:33.989Z,98812.26
2022-09-18T07:01:36.955Z,98817.55
2022-09-18T07:06:39.664Z,98821.67
2022-09-18T07:11:42.685Z,98825.73
2022-09-18T07:16:45.411Z,98823.89
2022-09-18T07:21:48.111Z,98822.06
2022-09-18T07:26:50.853Z,98820.23
2022-09-18T07:31:53.592Z,98823.04
2022-09-18T07:36:56.310Z,98819.85
2022-09-18T07:41:59.240Z,98818.23
2022-09-18T07:47:03.175Z,98821.75
2022-09-18T07:52:06.735Z,98811.48
2022-09-18T07:57:10.128Z,98808.93
2022-09-18T08:02:13.297Z,98815.29
2022-09-18T08:07:16.222Z,98811.30
2022-09-18T08:12:19.593Z,98812.16
2022-09-18T08:17:23.949Z,98813.56
2022-09-18T08:22:27.101Z,98818.10
2022-09-18T08:27:29.850Z,98821.03
2022-09-18T08:32:36.183Z,98820.39
2022-09-18T08:37:48.673Z,98825.61
2022-09-18T08:43:03.813Z,98823.88
2022-09-18T08:48:14.602Z,98822.95
2022-09-18T08:53:30.110Z,98820.04
2022-09-18T08:58:45.574Z,98819.58
2022-09-18T09:04:00.904Z,98820.33
2022-09-18T09:09:30.857Z,98818.99
2022-09-18T09:14:57.920Z,98822.43
2022-09-18T09:20:21.666Z,98821.82
2022-09-18T09:25:47.996Z,98821.98
2022-09-18T09:30:55.340Z,98830.31
2022-09-18T09:36:09.810Z,98838.94
2022-09-18T09:41:25.464Z,98849.41
2022-09-18T09:46:50.093Z,98852.75
2022-09-18T09:52:03.697Z,98856.21
2022-09-18T09:57:23.425Z,98862.41
2022-09-18T10:02:30.432Z,98862.38
2022-09-18T10:07:43.522Z,98867.65
2022-09-18T10:13:00.569Z,98868.36
2022-09-18T10:18:12.344Z,98874.11
2022-09-18T10:23:41.416Z,98879.42
2022-09-18T10:28:44.305Z,98884.40
2022-09-18T10:33:53.182Z,98890.73
2022-09-18T10:39:00.194Z,98889.91
2022-09-18T10:44:24.450Z,98888.52
2022-09-18T10:49:41.048Z,98893.88
2022-09-18T10:55:00.814Z,98895.48
2022-09-18T11:00:24.695Z,98899.00
2022-09-18T11:05:33.804Z,98894.77
2022-09-18T11:10:38.017Z,98896.09
2022-09-18T11:15:53.570Z,98897.94
2022-09-18T11:21:03.947Z,98897.56
2022-09-18T11:26:26.793Z,98897.48
2022-09-18T11:31:39.033Z,98895.61
2022-09-18T11:36:49.495Z,98895.43
2022-09-18T11:41:54.295Z,98895.70
2022-09-18T11:47:29.843Z,98890.83
2022-09-18T11:52:40.157Z,98882.38
2022-09-18T11:57:48.462Z,98878.50
2022-09-18T12:03:01.005Z,98875.67
2022-09-18T12:08:50.492Z,98880.34
2022-09-18T12:14:17.354Z,98882.55
2022-09-18T12:19:49.521Z,98881.09
2022-09-18T12:24:52.203Z,98876.39
2022-09-18T12:30:08.965Z,98877.55
2022-09-18T12:35:37.366Z,98879.64
2022-09-18T12:41:16.486Z,98877.34
2022-09-18T12:46:26.109Z,98869.71
2022-09-18T12:51:35.415Z,98868.35
2022-09-18T12:57:06.290Z,98871.27
2022-09-18T13:02:36.350Z,98874.27
2022-09-18T13:07:48.843Z,98877.02
2022-09-18T13:13:09.579Z,98881.27
2022-09-18T13:18:39.160Z,98882.48
2022-09-18T13:23:42.859Z,98887.48
2022-09-18T13:28:45.664Z,98885.23
2022-09-18T13:34:06.911Z,98887.70
2022-09-18T13:39:25.023Z,98893.16
2022-09-18T13:44:34.974Z,98894.50
2022-09-18T13:50:17.212Z,98892.78
2022-09-18T13:55:20.259Z,98892.09
2022-09-18T14:00:24.151Z,98889.30
2022-09-18T14:05:31.023Z,98888.29
2022-09-18T14:10:54.666Z,98889.90
2022-09-18T14:16:13.754Z,98889.31
2022-09-18T14:21:21.499Z,98885.87
2022-09-18T14:26:38.052Z,98883.84
2022-09-18T14:31:52.842Z,98884.89
2022-09-18T14:37:27.206Z,98882.52
2022-09-18T14:42:38.394Z,98883.80
2022-09-18T14:47:44.097Z,98886.55
2022-09-18T14:52:47.985Z,98888.34
2022-09-18T14:57:55.671Z,98889.90
2022-09-18T15:03:02.744Z,98887.55
2022-09-18T15:08:14.361Z,98887.55
2022-09-18T15:13:18.832Z,98885.88
2022-09-18T15:18:25.752Z,98880.18
2022-09-18T15:23:38.576Z,98879.43
2022-09-18T15:28:44.613Z,98883.70
2022-09-18T15:34:00.261Z,98890.95
2022-09-18T15:39:06.459Z,98892.27
2022-09-18T15:44:34.454Z,98890.83
2022-09-18T15:49:37.384Z,98891.64
2022-09-18T15:55:18.717Z,98892.21
2022-09-18T16:00:29.987Z,98894.09
2022-09-18T16:05:37.761Z,98894.23
2022-09-18T16:10:44.713Z,98899.67
2022-09-18T16:16:08.659Z,98898.04
2022-09-18T16:21:11.564Z,98900.16
2022-09-18T16:26:19.945Z,98906.17
2022-09-18T16:31:26.435Z,98907.07
2022-09-18T16:36:40.331Z,98911.38
2022-09-18T16:41:43.860Z,98910.61
2022-09-18T16:47:07.967Z,98906.67
2022-09-18T16:52:12.082Z,98906.30
2022-09-18T16:57:20.548Z,98912.19
2022-09-18T17:02:26.083Z,98923.73
2022-09-18T17:07:30.330Z,98927.52
2022-09-18T17:12:33.090Z,98931.80
2022-09-18T17:17:36.899Z,98930.99
2022-09-18T17:22:39.958Z,98938.65
2022-09-18T17:27:44.008Z,98937.30
2022-09-18T17:32:48.624Z,98935.44
2022-09-18T17:37:51.867Z,98933.77
2022-09-18T17:42:55.041Z,98929.84
2022-09-18T17:47:58.161Z,98928.27
2022-09-18T17:53:01.334Z,98926.96
2022-09-18T17:58:04.435Z,98921.27
2022-09-18T18:03:07.825Z,98927.90
2022-09-18T18:08:10.541Z,98929.50
2022-09-18T18:13:18.191Z,98932.38
2022-09-18T18:18:21.769Z,98937.35
2022-09-18T18:23:25.004Z,98944.60
2022-09-18T18:28:32.541Z,98944.08
2022-09-18T18:33:37.579Z,98948.42
2022-09-18T18:38:43.492Z,98947.51
2022-09-18T18:43:46.717Z,98955.55
2022-09-18T18:49:00.116Z,98959.38
2022-09-18T18:54:05.461Z,98964.34
2022-09-18T18:59:12.725Z,98965.84
2022-09-18T19:04:21.567Z,98961.24
2022-09-18T19:09:27.872Z,98957.09
2022-09-18T19:14:33.882Z,98956.35
2022-09-18T19:19:36.747Z,98953.52
2022-09-18T19:24:40.099Z,98953.95
2022-09-18T19:29:43.158Z,98958.36
2022-09-18T19:34:46.184Z,98957.80
2022-09-18T19:39:50.236Z,98959.38
2022-09-18T19:45:01.422Z,98958.92
2022-09-18T19:50:06.046Z,98958.73
2022-09-18T19:55:16.016Z,98956.67
2022-09-18T20:00:19.460Z,98964.42
2022-09-18T20:05:22.133Z,98962.38
2022-09-18T20:10:24.864Z,98962.73
2022-09-18T20:15:27.749Z,98958.53
2022-09-18T20:20:31.179Z,98959.92
2022-09-18T20:25:34.202Z,98964.20
2022-09-18T20:30:38.953Z,98965.08
2022-09-18T20:35:41.732Z,98965.58
2022-09-18T20:40:45.392Z,98965.55
2022-09-18T20:45:58.146Z,98964.86
2022-09-18T20:51:09.292Z,98968.42
2022-09-18T20:56:15.062Z,98967.14
2022-09-18T21:01:20.721Z,98965.14
2022-09-18T21:06:26.181Z,98966.72
2022-09-18T21:11:31.611Z,98962.08
2022-09-18T21:16:39.318Z,98962.53
2022-09-18T21:21:42.326Z,98964.38
2022-09-18T21:26:48.009Z,98962.55
2022-09-18T21:31:54.226Z,98960.98
2022-09-18T21:37:07.803Z,98958.89
2022-09-18T21:42:10.917Z,98954.92
2022-09-18T21:47:13.654Z,98960.14
2022-09-18T21:52:17.381Z,98961.23
2022-09-18T21:57:20.164Z,98958.83
2022-09-18T22:02:22.923Z,98959.31
2022-09-18T22:07:26.326Z,98954.61
2022-09-18T22:12:29.044Z,98956.44
2022-09-18T22:17:32.114Z,98952.70
2022-09-18T22:22:34.925Z,98954.54
2022-09-18T22:27:37.808Z,98956.65
2022-09-18T22:32:41.523Z,98960.91
2022-09-18T22:37:44.374Z,98959.84
2022-09-18T22:42:47.071Z,98961.43
2022-09-18T22:47:49.874Z,98963.37
2022-09-18T22:52:52.771Z,98965.36
2022-09-18T22:57:56.223Z,98963.55
2022-09-18T23:02:58.897Z,98962.70
2022-09-18T23:08:01.974Z,98962.55
2022-09-18T23:13:05.081Z,98963.06
2022-09-18T23:18:07.778Z,98968.79
2022-09-18T23:23:10.548Z,98971.33
2022-09-18T23:28:13.494Z,98969.59
2022-09-18T23:33:17.044Z,98969.38
2022-09-18T23:38:19.738Z,98966.90
2022-09-18T23:43:22.488Z,98968.05
2022-09-18T23:48:26.583Z,98966.39
2022-09-18T23:53:36.238Z,98963.36
2022-09-18T23:58:42.122Z,98961.58
